Main page
METAR-TAF:

METAR-TAF

Airports :

Brooks County Airport

Falfurrias, Texas, United States

latitude: 27-12-24N, longitude: 098-07-16W, elevation: 112 ft

Current weather observation

The report was made 16 minutes ago, at 02:15 UTC
Wind 12 mph from the North with gusts up to 17 mph
Temperature 54°F
Humidity 76%
Pressure 30.35 in. Hg
Visibility: 10 miles
Overcast at a height of 2000 ft

METAR: KBKS 110215Z AUTO 35010G15KT 10SM OVC020 12/08 A3035 RMK AO1 T01230075

Time: 20:31 (02:31 UTC)


TAF: missing

Weather observations and forecasts of more than 4000 airports (METAR and TAF reports).

The available stations are represented by yellow and red dots on the map.

Hover mouse over dot to see the name of the station.

Then click to see weather observations and forecasts.

To change the map : click on the green buttons with a black cross to zoom in, on the green button with a dash to zoom out, or on the green arrows for adjacent maps.


METAR-TAF: